sensor_id;sensor_type;location;lat;lon;timestamp;pressure;altitude;pressure_sealevel;temperature;humidity
15604;BME280;7902;49.042;9.092;2022-11-04T00:01:42;98058.19;;;14.76;63.81
15604;BME280;7902;49.042;9.092;2022-11-04T00:04:10;98070.72;;;14.74;63.64
15604;BME280;7902;49.042;9.092;2022-11-04T00:06:37;98076.19;;;14.64;63.84
15604;BME280;7902;49.042;9.092;2022-11-04T00:09:04;98083.59;;;14.61;63.66
15604;BME280;7902;49.042;9.092;2022-11-04T00:11:32;98070.41;;;14.69;63.85
15604;BME280;7902;49.042;9.092;2022-11-04T00:14:16;98078.84;;;14.72;62.50
15604;BME280;7902;49.042;9.092;2022-11-04T00:16:42;98076.69;;;14.68;62.80
15604;BME280;7902;49.042;9.092;2022-11-04T00:19:27;98080.31;;;14.67;64.06
15604;BME280;7902;49.042;9.092;2022-11-04T00:21:54;98089.72;;;14.69;63.81
15604;BME280;7902;49.042;9.092;2022-11-04T00:24:38;98077.66;;;14.75;63.47
15604;BME280;7902;49.042;9.092;2022-11-04T00:27:08;98096.34;;;14.73;63.71
15604;BME280;7902;49.042;9.092;2022-11-04T00:29:52;98097.81;;;14.68;62.80
15604;BME280;7902;49.042;9.092;2022-11-04T00:32:18;98096.69;;;14.78;63.95
15604;BME280;7902;49.042;9.092;2022-11-04T00:35:04;98103.44;;;14.73;62.88
15604;BME280;7902;49.042;9.092;2022-11-04T00:37:30;98108.38;;;14.68;63.45
15604;BME280;7902;49.042;9.092;2022-11-04T00:39:56;98116.31;;;14.68;63.62
15604;BME280;7902;49.042;9.092;2022-11-04T00:42:22;98116.66;;;14.73;64.15
15604;BME280;7902;49.042;9.092;2022-11-04T00:44:47;98120.28;;;14.72;64.06
15604;BME280;7902;49.042;9.092;2022-11-04T00:47:13;98114.50;;;14.68;63.78
15604;BME280;7902;49.042;9.092;2022-11-04T00:49:39;98108.34;;;14.60;64.29
15604;BME280;7902;49.042;9.092;2022-11-04T00:52:05;98109.34;;;14.59;64.06
15604;BME280;7902;49.042;9.092;2022-11-04T00:54:31;98106.19;;;14.55;64.88
15604;BME280;7902;49.042;9.092;2022-11-04T00:56:57;98101.91;;;14.54;64.79
15604;BME280;7902;49.042;9.092;2022-11-04T00:59:23;98099.63;;;14.59;64.19
15604;BME280;7902;49.042;9.092;2022-11-04T01:01:49;98105.06;;;14.66;64.40
15604;BME280;7902;49.042;9.092;2022-11-04T01:04:14;98109.34;;;14.59;63.74
15604;BME280;7902;49.042;9.092;2022-11-04T01:06:40;98109.00;;;14.54;64.58
15604;BME280;7902;49.042;9.092;2022-11-04T01:09:07;98103.59;;;14.63;63.35
15604;BME280;7902;49.042;9.092;2022-11-04T01:11:34;98119.00;;;14.42;63.93
15604;BME280;7902;49.042;9.092;2022-11-04T01:14:00;98106.78;;;14.41;63.47
15604;BME280;7902;49.042;9.092;2022-11-04T01:16:26;98105.03;;;14.49;62.57
15604;BME280;7902;49.042;9.092;2022-11-04T01:18:52;98100.56;;;14.50;63.29
15604;BME280;7902;49.042;9.092;2022-11-04T01:21:19;98116.25;;;14.52;62.29
15604;BME280;7902;49.042;9.092;2022-11-04T01:23:45;98106.66;;;14.50;63.23
15604;BME280;7902;49.042;9.092;2022-11-04T01:26:20;98107.31;;;14.44;62.53
15604;BME280;7902;49.042;9.092;2022-11-04T01:28:46;98113.59;;;14.43;62.54
15604;BME280;7902;49.042;9.092;2022-11-04T01:31:18;98117.22;;;14.50;61.88
15604;BME280;7902;49.042;9.092;2022-11-04T01:33:51;98116.09;;;14.53;62.11
15604;BME280;7902;49.042;9.092;2022-11-04T01:36:17;98101.38;;;14.50;62.73
15604;BME280;7902;49.042;9.092;2022-11-04T01:38:44;98108.66;;;14.48;62.52
15604;BME280;7902;49.042;9.092;2022-11-04T01:41:20;98112.91;;;14.41;63.22
15604;BME280;7902;49.042;9.092;2022-11-04T01:43:55;98113.72;;;14.42;63.11
15604;BME280;7902;49.042;9.092;2022-11-04T01:48:55;98112.06;;;14.41;62.02
15604;BME280;7902;49.042;9.092;2022-11-04T01:51:23;98109.22;;;14.34;62.23
15604;BME280;7902;49.042;9.092;2022-11-04T01:53:51;98119.50;;;14.37;62.67
15604;BME280;7902;49.042;9.092;2022-11-04T01:56:19;98123.16;;;14.44;62.15
15604;BME280;7902;49.042;9.092;2022-11-04T01:58:49;98133.28;;;14.31;62.64
15604;BME280;7902;49.042;9.092;2022-11-04T02:01:17;98126.88;;;14.34;62.75
15604;BME280;7902;49.042;9.092;2022-11-04T02:03:50;98117.78;;;14.28;61.94
15604;BME280;7902;49.042;9.092;2022-11-04T02:06:19;98116.22;;;14.43;62.42
15604;BME280;7902;49.042;9.092;2022-11-04T02:08:46;98124.34;;;14.24;63.23
15604;BME280;7902;49.042;9.092;2022-11-04T02:11:12;98136.59;;;14.33;62.24
15604;BME280;7902;49.042;9.092;2022-11-04T02:13:59;98126.66;;;14.27;62.62
15604;BME280;7902;49.042;9.092;2022-11-04T02:16:39;98128.00;;;14.31;62.06
15604;BME280;7902;49.042;9.092;2022-11-04T02:19:45;98131.94;;;14.27;62.94
15604;BME280;7902;49.042;9.092;2022-11-04T02:25:27;98104.22;;;14.23;62.00
15604;BME280;7902;49.042;9.092;2022-11-04T02:28:32;98118.75;;;14.27;62.49
15604;BME280;7902;49.042;9.092;2022-11-04T02:36:45;98116.78;;;14.29;62.79
15604;BME280;7902;49.042;9.092;2022-11-04T02:39:34;98126.19;;;14.32;62.52
15604;BME280;7902;49.042;9.092;2022-11-04T02:42:41;98130.44;;;14.17;62.11
15604;BME280;7902;49.042;9.092;2022-11-04T02:45:22;98131.13;;;14.27;63.24
15604;BME280;7902;49.042;9.092;2022-11-04T02:47:56;98139.84;;;14.19;62.43
15604;BME280;7902;49.042;9.092;2022-11-04T02:50:30;98131.44;;;14.24;62.60
15604;BME280;7902;49.042;9.092;2022-11-04T02:55:45;98106.19;;;14.21;61.76
15604;BME280;7902;49.042;9.092;2022-11-04T02:58:20;98102.06;;;14.27;62.28
15604;BME280;7902;49.042;9.092;2022-11-04T03:00:50;98120.00;;;14.07;63.11
15604;BME280;7902;49.042;9.092;2022-11-04T03:03:21;98138.28;;;14.08;61.94
15604;BME280;7902;49.042;9.092;2022-11-04T03:05:51;98137.53;;;14.16;62.87
15604;BME280;7902;49.042;9.092;2022-11-04T03:08:24;98136.34;;;14.11;63.06
15604;BME280;7902;49.042;9.092;2022-11-04T03:11:00;98145.91;;;14.12;62.68
15604;BME280;7902;49.042;9.092;2022-11-04T03:13:32;98153.28;;;14.08;62.92
15604;BME280;7902;49.042;9.092;2022-11-04T03:16:05;98158.06;;;14.04;62.99
15604;BME280;7902;49.042;9.092;2022-11-04T03:18:42;98156.69;;;13.92;62.98
15604;BME280;7902;49.042;9.092;2022-11-04T03:21:12;98162.16;;;13.99;62.44
15604;BME280;7902;49.042;9.092;2022-11-04T03:23:39;98150.09;;;13.96;62.62
15604;BME280;7902;49.042;9.092;2022-11-04T03:26:32;98132.81;;;14.02;63.29
15604;BME280;7902;49.042;9.092;2022-11-04T03:29:28;98159.31;;;13.92;62.79
15604;BME280;7902;49.042;9.092;2022-11-04T03:34:33;98160.16;;;13.93;62.78
15604;BME280;7902;49.042;9.092;2022-11-04T03:37:01;98152.75;;;13.96;63.38
15604;BME280;7902;49.042;9.092;2022-11-04T03:39:27;98162.97;;;13.99;63.40
15604;BME280;7902;49.042;9.092;2022-11-04T03:41:55;98166.78;;;13.97;63.46
15604;BME280;7902;49.042;9.092;2022-11-04T03:44:23;98171.69;;;13.92;62.50
15604;BME280;7902;49.042;9.092;2022-11-04T03:46:51;98181.56;;;13.90;62.42
15604;BME280;7902;49.042;9.092;2022-11-04T03:49:19;98186.22;;;13.96;63.08
15604;BME280;7902;49.042;9.092;2022-11-04T03:51:45;98186.31;;;13.86;63.02
15604;BME280;7902;49.042;9.092;2022-11-04T03:54:12;98189.66;;;13.88;63.39
15604;BME280;7902;49.042;9.092;2022-11-04T03:59:59;98202.47;;;13.83;62.71
15604;BME280;7902;49.042;9.092;2022-11-04T04:02:58;98201.03;;;13.89;62.85
15604;BME280;7902;49.042;9.092;2022-11-04T04:05:30;98207.94;;;13.90;63.04
15604;BME280;7902;49.042;9.092;2022-11-04T04:08:21;98211.22;;;13.84;62.90
15604;BME280;7902;49.042;9.092;2022-11-04T04:11:02;98197.38;;;13.90;63.07
15604;BME280;7902;49.042;9.092;2022-11-04T04:13:43;98196.44;;;13.73;63.47
15604;BME280;7902;49.042;9.092;2022-11-04T04:16:21;98204.31;;;13.65;64.22
15604;BME280;7902;49.042;9.092;2022-11-04T04:19:00;98208.75;;;13.65;63.74
15604;BME280;7902;49.042;9.092;2022-11-04T04:21:31;98202.19;;;13.69;64.20
15604;BME280;7902;49.042;9.092;2022-11-04T04:24:02;98198.47;;;13.61;63.81
15604;BME280;7902;49.042;9.092;2022-11-04T04:26:50;98200.97;;;13.63;64.05
15604;BME280;7902;49.042;9.092;2022-11-04T04:29:36;98194.41;;;13.67;63.98
15604;BME280;7902;49.042;9.092;2022-11-04T04:32:03;98191.78;;;13.67;63.82
15604;BME280;7902;49.042;9.092;2022-11-04T04:34:31;98192.59;;;13.68;63.38
15604;BME280;7902;49.042;9.092;2022-11-04T04:37:08;98196.69;;;13.62;63.89
15604;BME280;7902;49.042;9.092;2022-11-04T04:42:24;98197.38;;;13.64;64.07
15604;BME280;7902;49.042;9.092;2022-11-04T04:45:10;98197.03;;;13.67;64.16
15604;BME280;7902;49.042;9.092;2022-11-04T04:47:44;98196.38;;;13.65;63.92
15604;BME280;7902;49.042;9.092;2022-11-04T04:50:14;98198.19;;;13.65;63.95
15604;BME280;7902;49.042;9.092;2022-11-04T04:52:44;98204.50;;;13.72;63.70
15604;BME280;7902;49.042;9.092;2022-11-04T04:55:11;98209.63;;;13.73;63.30
15604;BME280;7902;49.042;9.092;2022-11-04T04:57:37;98207.16;;;13.72;63.60
15604;BME280;7902;49.042;9.092;2022-11-04T05:00:05;98205.34;;;13.72;63.41
15604;BME280;7902;49.042;9.092;2022-11-04T05:02:31;98206.13;;;13.65;64.35
15604;BME280;7902;49.042;9.092;2022-11-04T05:04:57;98209.88;;;13.62;64.00
15604;BME280;7902;49.042;9.092;2022-11-04T05:07:24;98209.34;;;13.58;64.00
15604;BME280;7902;49.042;9.092;2022-11-04T05:09:50;98186.38;;;13.51;64.17
15604;BME280;7902;49.042;9.092;2022-11-04T05:12:16;98153.91;;;13.50;64.45
15604;BME280;7902;49.042;9.092;2022-11-04T05:14:42;98146.00;;;13.50;64.49
15604;BME280;7902;49.042;9.092;2022-11-04T05:17:08;98143.81;;;13.46;64.30
15604;BME280;7902;49.042;9.092;2022-11-04T05:19:34;98149.22;;;13.44;64.76
15604;BME280;7902;49.042;9.092;2022-11-04T05:22:00;98143.13;;;13.44;64.89
15604;BME280;7902;49.042;9.092;2022-11-04T05:24:26;98123.19;;;13.41;65.15
15604;BME280;7902;49.042;9.092;2022-11-04T05:26:52;98122.09;;;13.34;65.25
15604;BME280;7902;49.042;9.092;2022-11-04T05:29:18;98120.75;;;13.30;64.86
15604;BME280;7902;49.042;9.092;2022-11-04T05:31:44;98117.81;;;13.33;64.80
15604;BME280;7902;49.042;9.092;2022-11-04T05:34:10;98120.75;;;13.30;64.83
15604;BME280;7902;49.042;9.092;2022-11-04T05:36:36;98129.13;;;13.26;64.96
15604;BME280;7902;49.042;9.092;2022-11-04T05:39:03;98132.75;;;13.25;65.19
15604;BME280;7902;49.042;9.092;2022-11-04T05:41:29;98128.22;;;13.17;65.93
15604;BME280;7902;49.042;9.092;2022-11-04T05:43:59;98148.63;;;13.15;65.49
15604;BME280;7902;49.042;9.092;2022-11-04T05:46:26;98160.00;;;13.15;65.34
15604;BME280;7902;49.042;9.092;2022-11-04T05:48:52;98167.50;;;13.10;65.92
15604;BME280;7902;49.042;9.092;2022-11-04T05:51:22;98161.97;;;13.13;65.64
15604;BME280;7902;49.042;9.092;2022-11-04T05:53:48;98165.00;;;13.09;66.15
15604;BME280;7902;49.042;9.092;2022-11-04T05:56:14;98165.44;;;13.04;65.69
15604;BME280;7902;49.042;9.092;2022-11-04T05:58:40;98167.56;;;13.01;65.48
15604;BME280;7902;49.042;9.092;2022-11-04T06:03:57;98169.53;;;12.99;65.89
15604;BME280;7902;49.042;9.092;2022-11-04T06:06:24;98169.44;;;12.91;65.97
15604;BME280;7902;49.042;9.092;2022-11-04T06:08:51;98166.13;;;12.89;66.21
15604;BME280;7902;49.042;9.092;2022-11-04T06:11:18;98170.56;;;12.88;65.74
15604;BME280;7902;49.042;9.092;2022-11-04T06:13:44;98157.38;;;12.88;65.78
15604;BME280;7902;49.042;9.092;2022-11-04T06:16:10;98161.00;;;12.87;66.01
15604;BME280;7902;49.042;9.092;2022-11-04T06:18:36;98157.25;;;12.90;65.90
15604;BME280;7902;49.042;9.092;2022-11-04T06:21:28;98150.16;;;12.90;65.68
15604;BME280;7902;49.042;9.092;2022-11-04T06:23:56;98149.94;;;12.84;66.05
15604;BME280;7902;49.042;9.092;2022-11-04T06:26:23;98157.38;;;12.88;66.24
15604;BME280;7902;49.042;9.092;2022-11-04T06:28:50;98155.88;;;12.86;66.10
15604;BME280;7902;49.042;9.092;2022-11-04T06:31:16;98157.69;;;12.85;66.02
15604;BME280;7902;49.042;9.092;2022-11-04T06:33:43;98175.97;;;12.87;66.11
15604;BME280;7902;49.042;9.092;2022-11-04T06:36:12;98181.09;;;12.88;65.98
15604;BME280;7902;49.042;9.092;2022-11-04T06:38:38;98181.50;;;12.93;65.84
15604;BME280;7902;49.042;9.092;2022-11-04T06:41:11;98189.53;;;12.92;65.92
15604;BME280;7902;49.042;9.092;2022-11-04T06:43:37;98198.13;;;12.94;65.86
15604;BME280;7902;49.042;9.092;2022-11-04T06:46:03;98205.34;;;12.92;66.12
15604;BME280;7902;49.042;9.092;2022-11-04T06:48:30;98198.34;;;13.00;65.75
15604;BME280;7902;49.042;9.092;2022-11-04T06:50:57;98190.56;;;13.08;65.87
15604;BME280;7902;49.042;9.092;2022-11-04T06:53:24;98190.00;;;13.05;65.90
15604;BME280;7902;49.042;9.092;2022-11-04T06:55:50;98197.06;;;13.04;65.68
15604;BME280;7902;49.042;9.092;2022-11-04T06:58:17;98195.72;;;13.00;65.91
15604;BME280;7902;49.042;9.092;2022-11-04T07:00:49;98200.25;;;13.08;65.86
15604;BME280;7902;49.042;9.092;2022-11-04T07:03:15;98199.44;;;13.07;65.62
15604;BME280;7902;49.042;9.092;2022-11-04T07:05:41;98200.53;;;13.05;65.58
15604;BME280;7902;49.042;9.092;2022-11-04T07:08:07;98202.91;;;13.08;65.37
15604;BME280;7902;49.042;9.092;2022-11-04T07:10:33;98208.06;;;13.00;65.81
15604;BME280;7902;49.042;9.092;2022-11-04T07:12:59;98218.59;;;13.00;65.61
15604;BME280;7902;49.042;9.092;2022-11-04T07:15:25;98202.50;;;13.03;65.48
15604;BME280;7902;49.042;9.092;2022-11-04T07:17:51;98206.50;;;13.07;65.16
15604;BME280;7902;49.042;9.092;2022-11-04T07:20:16;98203.97;;;13.15;65.24
15604;BME280;7902;49.042;9.092;2022-11-04T07:22:42;98205.66;;;13.16;65.00
15604;BME280;7902;49.042;9.092;2022-11-04T07:25:08;98202.41;;;13.22;65.15
15604;BME280;7902;49.042;9.092;2022-11-04T07:27:34;98195.47;;;13.21;65.07
15604;BME280;7902;49.042;9.092;2022-11-04T07:30:00;98192.91;;;13.29;64.96
15604;BME280;7902;49.042;9.092;2022-11-04T07:32:26;98186.66;;;13.30;64.94
15604;BME280;7902;49.042;9.092;2022-11-04T07:34:52;98186.88;;;13.19;64.92
15604;BME280;7902;49.042;9.092;2022-11-04T07:37:18;98171.81;;;13.11;65.33
15604;BME280;7902;49.042;9.092;2022-11-04T07:39:44;98171.50;;;13.14;65.52
15604;BME280;7902;49.042;9.092;2022-11-04T07:42:10;98165.13;;;13.17;65.57
15604;BME280;7902;49.042;9.092;2022-11-04T07:44:36;98168.06;;;13.14;65.39
15604;BME280;7902;49.042;9.092;2022-11-04T07:47:01;98167.78;;;13.17;65.32
15604;BME280;7902;49.042;9.092;2022-11-04T07:49:27;98165.50;;;13.22;65.37
15604;BME280;7902;49.042;9.092;2022-11-04T07:51:54;98167.97;;;13.24;65.00
15604;BME280;7902;49.042;9.092;2022-11-04T07:54:20;98166.56;;;13.29;64.74
15604;BME280;7902;49.042;9.092;2022-11-04T07:56:45;98161.44;;;13.28;65.41
15604;BME280;7902;49.042;9.092;2022-11-04T07:59:12;98168.22;;;13.30;65.25
15604;BME280;7902;49.042;9.092;2022-11-04T08:01:38;98161.44;;;13.28;65.33
15604;BME280;7902;49.042;9.092;2022-11-04T08:04:03;98163.91;;;13.29;65.38
15604;BME280;7902;49.042;9.092;2022-11-04T08:06:31;98167.38;;;13.30;65.18
15604;BME280;7902;49.042;9.092;2022-11-04T08:08:57;98174.19;;;13.32;64.95
15604;BME280;7902;49.042;9.092;2022-11-04T08:11:24;98171.88;;;13.37;64.68
15604;BME280;7902;49.042;9.092;2022-11-04T08:13:54;98163.19;;;13.37;64.80
15604;BME280;7902;49.042;9.092;2022-11-04T08:16:21;98159.53;;;13.38;65.10
15604;BME280;7902;49.042;9.092;2022-11-04T08:18:49;98143.56;;;13.39;64.99
15604;BME280;7902;49.042;9.092;2022-11-04T08:21:17;98141.00;;;13.47;64.19
15604;BME280;7902;49.042;9.092;2022-11-04T08:23:44;98138.00;;;13.42;64.96
15604;BME280;7902;49.042;9.092;2022-11-04T08:26:13;98139.44;;;13.37;65.13
15604;BME280;7902;49.042;9.092;2022-11-04T08:28:39;98154.50;;;13.44;65.33
15604;BME280;7902;49.042;9.092;2022-11-04T08:31:29;98160.09;;;13.41;64.76
15604;BME280;7902;49.042;9.092;2022-11-04T08:33:55;98155.38;;;13.53;64.93
15604;BME280;7902;49.042;9.092;2022-11-04T08:36:27;98160.94;;;13.68;64.34
15604;BME280;7902;49.042;9.092;2022-11-04T08:38:54;98148.44;;;13.70;64.31
15604;BME280;7902;49.042;9.092;2022-11-04T08:41:26;98143.09;;;13.61;64.50
15604;BME280;7902;49.042;9.092;2022-11-04T08:43:57;98150.31;;;13.77;63.87
15604;BME280;7902;49.042;9.092;2022-11-04T08:46:33;98145.06;;;13.85;64.21
15604;BME280;7902;49.042;9.092;2022-11-04T08:48:59;98150.22;;;13.87;64.47
15604;BME280;7902;49.042;9.092;2022-11-04T08:51:27;98158.13;;;13.87;63.72
15604;BME280;7902;49.042;9.092;2022-11-04T08:53:53;98152.25;;;13.93;64.44
15604;BME280;7902;49.042;9.092;2022-11-04T08:56:27;98155.59;;;14.03;64.19
15604;BME280;7902;49.042;9.092;2022-11-04T08:58:54;98166.31;;;14.01;64.36
15604;BME280;7902;49.042;9.092;2022-11-04T09:01:20;98164.50;;;14.02;64.48
15604;BME280;7902;49.042;9.092;2022-11-04T09:03:47;98164.69;;;14.08;63.94
15604;BME280;7902;49.042;9.092;2022-11-04T09:06:26;98163.56;;;14.11;63.27
15604;BME280;7902;49.042;9.092;2022-11-04T09:08:52;98170.19;;;14.15;63.73
15604;BME280;7902;49.042;9.092;2022-11-04T09:11:23;98161.66;;;14.21;63.68
15604;BME280;7902;49.042;9.092;2022-11-04T09:13:49;98171.19;;;14.22;62.49
15604;BME280;7902;49.042;9.092;2022-11-04T09:16:15;98162.97;;;14.25;64.56
15604;BME280;7902;49.042;9.092;2022-11-04T09:18:41;98168.72;;;14.21;64.00
15604;BME280;7902;49.042;9.092;2022-11-04T09:21:08;98171.72;;;14.26;63.19
15604;BME280;7902;49.042;9.092;2022-11-04T09:23:34;98178.81;;;14.25;63.53
15604;BME280;7902;49.042;9.092;2022-11-04T09:26:19;98178.13;;;14.23;63.05
15604;BME280;7902;49.042;9.092;2022-11-04T09:28:46;98194.34;;;14.28;63.54
15604;BME280;7902;49.042;9.092;2022-11-04T09:31:17;98195.66;;;14.24;63.50
15604;BME280;7902;49.042;9.092;2022-11-04T09:33:43;98195.53;;;14.34;63.84
15604;BME280;7902;49.042;9.092;2022-11-04T09:36:11;98193.63;;;14.36;62.89
15604;BME280;7902;49.042;9.092;2022-11-04T09:38:39;98199.78;;;14.27;64.02
15604;BME280;7902;49.042;9.092;2022-11-04T09:46:19;98203.03;;;14.38;63.21
15604;BME280;7902;49.042;9.092;2022-11-04T09:48:49;98202.91;;;14.48;62.96
15604;BME280;7902;49.042;9.092;2022-11-04T09:51:19;98198.13;;;14.52;62.87
15604;BME280;7902;49.042;9.092;2022-11-04T09:54:01;98196.47;;;14.50;62.75
15604;BME280;7902;49.042;9.092;2022-11-04T09:56:37;98200.63;;;14.53;63.60
15604;BME280;7902;49.042;9.092;2022-11-04T09:59:04;98196.00;;;14.55;63.41
15604;BME280;7902;49.042;9.092;2022-11-04T10:01:50;98185.75;;;14.52;63.33
15604;BME280;7902;49.042;9.092;2022-11-04T10:05:00;98186.25;;;14.56;62.42
15604;BME280;7902;49.042;9.092;2022-11-04T10:07:40;98193.88;;;14.59;62.22
15604;BME280;7902;49.042;9.092;2022-11-04T10:10:20;98187.91;;;14.57;62.18
15604;BME280;7902;49.042;9.092;2022-11-04T10:18:27;98169.09;;;14.60;63.21
15604;BME280;7902;49.042;9.092;2022-11-04T10:21:20;98183.00;;;14.62;62.86
15604;BME280;7902;49.042;9.092;2022-11-04T10:29:27;98166.53;;;14.76;62.85
15604;BME280;7902;49.042;9.092;2022-11-04T10:31:57;98162.91;;;14.77;62.33
15604;BME280;7902;49.042;9.092;2022-11-04T10:36:59;98167.56;;;14.83;61.24
15604;BME280;7902;49.042;9.092;2022-11-04T10:39:31;98173.47;;;14.77;62.71
15604;BME280;7902;49.042;9.092;2022-11-04T10:41:59;98169.50;;;14.73;61.70
15604;BME280;7902;49.042;9.092;2022-11-04T10:44:32;98172.16;;;14.73;62.67
15604;BME280;7902;49.042;9.092;2022-11-04T10:47:25;98161.25;;;14.84;61.57
15604;BME280;7902;49.042;9.092;2022-11-04T10:50:02;98167.56;;;14.83;62.13
15604;BME280;7902;49.042;9.092;2022-11-04T10:52:38;98168.84;;;14.79;61.15
15604;BME280;7902;49.042;9.092;2022-11-04T10:57:56;98155.63;;;14.79;61.32
15604;BME280;7902;49.042;9.092;2022-11-04T11:00:41;98153.72;;;14.97;61.54
15604;BME280;7902;49.042;9.092;2022-11-04T11:03:33;98147.06;;;14.85;61.03
15604;BME280;7902;49.042;9.092;2022-11-04T11:06:13;98146.09;;;14.94;61.12
15604;BME280;7902;49.042;9.092;2022-11-04T11:08:41;98150.88;;;14.82;61.43
15604;BME280;7902;49.042;9.092;2022-11-04T11:11:09;98149.06;;;14.83;60.45
15604;BME280;7902;49.042;9.092;2022-11-04T11:13:38;98145.09;;;14.87;60.55
15604;BME280;7902;49.042;9.092;2022-11-04T11:16:25;98151.53;;;14.84;60.18
15604;BME280;7902;49.042;9.092;2022-11-04T11:21:48;98148.25;;;14.99;61.96
15604;BME280;7902;49.042;9.092;2022-11-04T11:24:19;98140.47;;;14.89;61.05
15604;BME280;7902;49.042;9.092;2022-11-04T11:26:45;98141.44;;;14.88;60.40
15604;BME280;7902;49.042;9.092;2022-11-04T11:29:24;98136.22;;;15.04;60.79
15604;BME280;7902;49.042;9.092;2022-11-04T11:31:53;98136.69;;;15.08;60.98
15604;BME280;7902;49.042;9.092;2022-11-04T11:34:24;98128.13;;;15.06;61.20
15604;BME280;7902;49.042;9.092;2022-11-04T11:36:53;98123.19;;;15.11;61.34
15604;BME280;7902;49.042;9.092;2022-11-04T11:39:21;98128.47;;;15.11;61.66
15604;BME280;7902;49.042;9.092;2022-11-04T11:41:56;98128.28;;;15.04;61.27
15604;BME280;7902;49.042;9.092;2022-11-04T11:44:29;98116.72;;;15.05;60.50
15604;BME280;7902;49.042;9.092;2022-11-04T11:47:00;98126.31;;;15.06;61.12
15604;BME280;7902;49.042;9.092;2022-11-04T11:49:29;98122.69;;;15.15;60.11
15604;BME280;7902;49.042;9.092;2022-11-04T11:54:49;98108.59;;;15.07;61.05
15604;BME280;7902;49.042;9.092;2022-11-04T11:57:29;98109.44;;;15.07;60.40
15604;BME280;7902;49.042;9.092;2022-11-04T12:00:02;98105.00;;;15.24;60.89
15604;BME280;7902;49.042;9.092;2022-11-04T12:02:46;98112.78;;;15.25;61.11
15604;BME280;7902;49.042;9.092;2022-11-04T12:05:16;98118.72;;;15.19;60.40
15604;BME280;7902;49.042;9.092;2022-11-04T12:07:59;98108.00;;;15.29;60.11
15604;BME280;7902;49.042;9.092;2022-11-04T12:22:19;98108.47;;;15.24;60.74
15604;BME280;7902;49.042;9.092;2022-11-04T12:24:42;98101.03;;;15.28;60.34
15604;BME280;7902;49.042;9.092;2022-11-04T12:27:27;98104.66;;;15.27;61.40
15604;BME280;7902;49.042;9.092;2022-11-04T12:32:48;98114.75;;;15.31;60.98
15604;BME280;7902;49.042;9.092;2022-11-04T12:35:43;98119.88;;;15.33;60.52
15604;BME280;7902;49.042;9.092;2022-11-04T12:44:27;98122.34;;;15.26;61.26
15604;BME280;7902;49.042;9.092;2022-11-04T12:49:53;98129.97;;;15.46;59.79
15604;BME280;7902;49.042;9.092;2022-11-04T12:57:45;98132.44;;;15.47;59.21
15604;BME280;7902;49.042;9.092;2022-11-04T13:00:19;98136.56;;;15.42;59.34
15604;BME280;7902;49.042;9.092;2022-11-04T13:03:14;98138.88;;;15.45;60.42
15604;BME280;7902;49.042;9.092;2022-11-04T13:05:55;98149.47;;;15.45;60.04
15604;BME280;7902;49.042;9.092;2022-11-04T13:08:52;98144.50;;;15.50;59.83
15604;BME280;7902;49.042;9.092;2022-11-04T13:14:05;98147.50;;;15.47;60.13
15604;BME280;7902;49.042;9.092;2022-11-04T13:16:35;98147.34;;;15.48;60.84
15604;BME280;7902;49.042;9.092;2022-11-04T13:19:05;98154.47;;;15.56;60.23
15604;BME280;7902;49.042;9.092;2022-11-04T13:21:37;98161.41;;;15.49;59.82
15604;BME280;7902;49.042;9.092;2022-11-04T13:24:04;98166.31;;;15.35;60.53
15604;BME280;7902;49.042;9.092;2022-11-04T13:26:31;98166.31;;;15.35;60.18
15604;BME280;7902;49.042;9.092;2022-11-04T13:29:06;98166.00;;;15.47;59.64
15604;BME280;7902;49.042;9.092;2022-11-04T13:37:31;98163.03;;;15.50;60.88
15604;BME280;7902;49.042;9.092;2022-11-04T13:40:09;98167.81;;;15.46;59.54
15604;BME280;7902;49.042;9.092;2022-11-04T13:43:03;98171.31;;;15.47;60.39
15604;BME280;7902;49.042;9.092;2022-11-04T13:45:55;98173.28;;;15.45;60.16
15604;BME280;7902;49.042;9.092;2022-11-04T13:48:25;98177.94;;;15.51;59.88
15604;BME280;7902;49.042;9.092;2022-11-04T13:51:11;98173.81;;;15.56;61.22
15604;BME280;7902;49.042;9.092;2022-11-04T13:53:48;98179.47;;;15.53;61.65
15604;BME280;7902;49.042;9.092;2022-11-04T13:56:44;98179.72;;;15.50;61.20
15604;BME280;7902;49.042;9.092;2022-11-04T13:59:25;98176.25;;;15.50;61.22
15604;BME280;7902;49.042;9.092;2022-11-04T14:04:39;98174.31;;;15.52;61.28
15604;BME280;7902;49.042;9.092;2022-11-04T14:07:08;98180.59;;;15.51;61.04
15604;BME280;7902;49.042;9.092;2022-11-04T14:09:51;98183.25;;;15.59;60.63
15604;BME280;7902;49.042;9.092;2022-11-04T14:12:25;98193.19;;;15.57;60.52
15604;BME280;7902;49.042;9.092;2022-11-04T14:14:53;98194.66;;;15.59;60.74
15604;BME280;7902;49.042;9.092;2022-11-04T14:25:01;98190.19;;;15.60;61.75
15604;BME280;7902;49.042;9.092;2022-11-04T14:27:38;98202.44;;;15.61;61.70
15604;BME280;7902;49.042;9.092;2022-11-04T14:30:06;98204.41;;;15.59;61.32
15604;BME280;7902;49.042;9.092;2022-11-04T14:32:40;98207.06;;;15.59;60.99
15604;BME280;7902;49.042;9.092;2022-11-04T14:35:06;98206.06;;;15.52;60.93
15604;BME280;7902;49.042;9.092;2022-11-04T14:37:41;98202.78;;;15.58;61.25
15604;BME280;7902;49.042;9.092;2022-11-04T14:40:27;98202.28;;;15.62;61.90
15604;BME280;7902;49.042;9.092;2022-11-04T14:42:55;98216.84;;;15.66;60.84
15604;BME280;7902;49.042;9.092;2022-11-04T14:45:24;98208.56;;;15.61;61.05
15604;BME280;7902;49.042;9.092;2022-11-04T14:47:58;98210.53;;;15.59;60.87
15604;BME280;7902;49.042;9.092;2022-11-04T14:50:26;98220.28;;;15.59;60.83
15604;BME280;7902;49.042;9.092;2022-11-04T14:53:02;98223.25;;;15.56;61.07
15604;BME280;7902;49.042;9.092;2022-11-04T14:55:31;98218.31;;;15.61;61.34
15604;BME280;7902;49.042;9.092;2022-11-04T14:58:20;98223.75;;;15.59;61.26
15604;BME280;7902;49.042;9.092;2022-11-04T15:06:06;98231.69;;;15.51;60.22
15604;BME280;7902;49.042;9.092;2022-11-04T15:13:37;98241.16;;;15.62;60.83
15604;BME280;7902;49.042;9.092;2022-11-04T15:16:09;98247.06;;;15.56;60.42
15604;BME280;7902;49.042;9.092;2022-11-04T15:18:38;98244.22;;;15.49;61.44
15604;BME280;7902;49.042;9.092;2022-11-04T15:21:06;98248.84;;;15.39;62.29
15604;BME280;7902;49.042;9.092;2022-11-04T15:23:36;98244.53;;;15.38;61.75
15604;BME280;7902;49.042;9.092;2022-11-04T15:26:05;98246.03;;;15.41;61.39